Pronóstico
Mapa Interactivo
Aviación
Investigación
Hidrometeorología
Agrometeorología
Estaciones Automáticas
Transparencia
OMM WMO
Portada
Institución
Noticias
Imágenes
Tsunami
Historial
Boletines y Alertas
Contactos
Buscar Contenidos
Informe del Tiempo

Aviso
HARVEY SE DEBILITA Y DEGENERA A DEPRESION TROPICAL


GG MDSDYMYX
200307 MDSDYMYX
SPDR31 MDSD 200306Z
SPECI

MDPC SPECI 200306Z 08010KT 8000 -RA BKN016 SCT070 27/26 Q1013=

 

SADR31 MDSD 200300Z
METAR

METAR MDPP 200300Z 00000KT 9999 FEW016CB SCT016 27/26 Q1013 CB/W/NW=
METAR MDST 200300Z 14004KT 9999 SCT016 SCT300 27/24 Q1014=
METAR MDPC 200300Z 06008KT 8000 VCSH SCT017 27/26 Q1013=
METAR MDSD 200300Z 03004KT 9999 FEW014CB SCT016 26/25 Q1013
CB/NE/S/SW/W/NW=
METAR MDLR 200300Z 06006KT 9999 FEW016 SCT070 25/24 Q1013=